Last 48 Hours

Stanford Met Tower

Hourly Data | America/Los_Angeles
as of 3/30/20 12:00 PM PDT
Date & Time Temp (°F) Temp Inversion (°F) RH (%) Dew Pt (°F) Wind Dir (°) Wind Spd (mph) Wind Gust (mph) Latest Rain (In) ETo Hr (in) ETo 2pm (In) Daily Rain (In) Daily Min Temp (°F) Daily Max Temp (°F)
3/30/20 - 1100 58.4 -5.5 63 45.8 NW | 324 2.6 7.6 0.00 0.010 0.05 0.00 44.5 59.2
3/30/20 - 1000 57.1 -3.5 62 44.4 SSW | 208 2.3 5.9 0.00 0.008 0.05 0.00 44.5 58.1
3/30/20 - 0900 54.2 -0.6 71 45.0 WNW | 290 2.4 6.4 0.00 0.003 0.05 0.00 44.5 55.1
3/30/20 - 0800 50.2 0.8 92 48.0 SW | 227 1.6 3.7 0.00 0.000 0.05 0.00 44.5 51.6
3/30/20 - 0700 51.0 0.5 90 48.2 SW | 228 2.3 5.3 0.00 0.000 0.05 0.00 44.5 51.1
3/30/20 - 0600 49.3 0.3 94 47.7 WSW | 247 1.9 4.5 0.00 0.000 0.05 0.00 44.5 50.0
3/30/20 - 0500 48.8 0.8 93 47.0 SSW | 212 2.2 4.9 0.00 0.000 0.05 0.00 44.5 49.6
3/30/20 - 0400 47.6 0.4 94 46.1 SW | 217 3.2 7.0 0.00 0.000 0.05 0.00 44.5 48.4
3/30/20 - 0300 45.8 1.7 98 45.1 SW | 232 3.0 6.0 0.00 0.000 0.05 0.00 44.5 48.4
3/30/20 - 0200 45.0 2.4 97 44.3 SW | 228 2.0 4.6 0.00 0.000 0.05 0.00 45.0 48.4
3/30/20 - 0100 48.0 2.7 93 46.1 W | 273 0.6 2.1 0.00 0.000 0.05 0.02 48.0 63.1
3/30/20 - 0000 51.8 0.7 86 47.6 W | 264 2.0 3.4 0.00 0.000 0.05 0.02 48.4 63.1
3/29/20 - 2300 52.4 0.6 87 48.6 NW | 323 1.4 4.4 0.00 0.000 0.05 0.02 48.4 63.1
3/29/20 - 2200 53.3 0.6 82 47.9 NW | 304 2.0 5.7 0.00 0.000 0.05 0.02 48.4 63.1
3/29/20 - 2100 54.1 0.7 77 47.2 SW | 235 4.0 8.1 0.00 0.000 0.05 0.02 48.4 63.1
3/29/20 - 2000 53.6 1.8 81 48.0 WSW | 243 3.2 9.8 0.00 0.000 0.05 0.02 48.4 63.1
3/29/20 - 1900 57.7 -0.2 73 49.0 WSW | 254 4.9 9.4 0.00 0.002 0.05 0.02 48.4 63.1
3/29/20 - 1800 60.4 -1.0 68 49.6 NNE | 12 4.1 9.5 0.00 0.004 0.05 0.02 48.4 63.1
3/29/20 - 1700 59.1 -2.1 76 51.7 NW | 316 4.2 9.8 0.00 0.004 0.05 0.02 48.4 63.1
3/29/20 - 1600 57.3 -0.8 81 51.6 NNW | 347 6.2 11.2 0.00 0.007 0.05 0.02 48.4 63.1
3/29/20 - 1500 55.1 -1.2 91 52.4 NW | 323 6.0 12.5 0.01 0.005 0.05 0.02 48.4 63.1
3/29/20 - 1400 62.0 -2.9 58 47.1 SE | 141 2.3 6.3 0.00 0.007 0.06 0.01 48.4 62.4
3/29/20 - 1300 58.7 -1.7 68 48.2 NNE | 16 3.8 8.7 0.00 0.008 0.06 0.01 48.4 59.4
3/29/20 - 1200 56.8 -2.2 77 49.7 SE | 136 5.1 10.9 0.00 0.006 0.06 0.01 48.4 59.4
3/29/20 - 1100 58.7 -2.0 69 48.7 ESE | 118 4.2 10.1 0.00 0.009 0.06 0.01 48.4 59.4
3/29/20 - 1000 57.2 -3.5 75 49.5 ESE | 121 4.0 9.2 0.00 0.006 0.06 0.01 48.4 57.8
3/29/20 - 0900 52.7 -0.7 85 48.4 SE | 125 3.5 7.6 0.00 0.002 0.06 0.01 48.4 53.4
3/29/20 - 0800 49.4 0.0 95 48.1 SSE | 155 2.5 5.5 0.00 0.000 0.06 0.01 48.4 50.5
3/29/20 - 0700 49.2 0.7 95 47.7 SE | 124 2.9 6.0 0.00 0.000 0.06 0.01 48.8 50.5
3/29/20 - 0600 49.5 0.4 93 47.6 SE | 132 3.3 6.5 0.01 0.000 0.06 0.01 48.8 50.5
3/29/20 - 0500 49.3 0.7 96 48.2 SE | 131 2.6 5.5 0.00 0.000 0.06 0.00 48.8 50.5
3/29/20 - 0400 49.1 1.4 97 48.2 SE | 132 1.4 4.0 0.00 0.000 0.06 0.00 48.9 50.5
3/29/20 - 0300 49.4 0.7 96 48.4 SSE | 160 2.4 5.5 0.00 0.000 0.06 0.00 49.3 50.5
3/29/20 - 0200 49.6 0.4 96 48.4 S | 180 1.0 4.4 0.00 0.000 0.06 0.00 49.4 50.5
3/29/20 - 0100 49.9 0.7 95 48.5 SSW | 197 0.8 3.1 0.00 0.000 0.06 0.06 48.1 57.8
3/29/20 - 0000 49.6 0.7 94 47.9 SSW | 199 3.2 5.3 0.00 0.000 0.06 0.06 48.1 57.8
3/28/20 - 2300 49.4 0.3 96 48.3 S | 189 2.8 4.6 0.00 0.000 0.06 0.06 48.1 57.8
3/28/20 - 2200 49.6 0.3 95 48.4 SSW | 198 3.2 4.9 0.00 0.000 0.06 0.06 48.1 57.8
3/28/20 - 2100 50.0 1.3 94 48.3 S | 188 2.4 4.1 0.01 0.000 0.06 0.06 48.1 57.8
3/28/20 - 2000 51.5 0.6 86 47.6 S | 188 2.5 5.2 0.00 0.000 0.06 0.05 48.1 57.8
3/28/20 - 1900 52.9 0.3 78 46.4 W | 261 2.5 8.5 0.00 0.001 0.06 0.05 48.1 57.8
3/28/20 - 1800 54.0 -1.1 88 50.5 N | 3 2.9 7.1 0.00 0.002 0.06 0.05 48.1 57.8
3/28/20 - 1700 54.7 -1.0 83 49.6 E | 81 4.3 8.2 0.00 0.003 0.06 0.05 48.1 57.8
3/28/20 - 1600 55.5 -0.4 78 49.0 SE | 142 4.0 9.9 0.00 0.003 0.06 0.05 48.1 57.8
3/28/20 - 1500 56.2 -0.7 73 47.6 ESE | 113 3.4 7.6 0.00 0.005 0.06 0.05 48.1 57.8
3/28/20 - 1400 56.6 -3.4 74 48.5 E | 82 5.0 10.8 0.00 0.009 0.09 0.05 48.1 57.8
3/28/20 - 1300 54.9 -1.9 81 49.1 NNE | 29 2.9 7.4 0.00 0.004 0.09 0.05 48.1 57.8
3/28/20 - 1200 56.8 -2.9 76 49.5 ESE | 104 3.3 7.8 0.00 0.009 0.09 0.05 48.1 57.0
Max 62.0 2.7 98 52.4 - 6.2 12.5 0.01 0.010 0.09 0.06 49.4 63.1
Avg 53.0 -0.3 84 48.1 - 3.0 6.8 0.00 0.002 0.06 - - -
Min 45.0 -5.5 58 44.3 - 0.6 2.1 0.00 0.000 0.05 0.00 44.5 48.4
Total - - - - - - - 0.03 0.117 - - - -